Disclaimer

Please do not use the information listed here in-flight or in-navigation, as they are not provided to us by the airports but are provided by volunteers, so they might be outdated.

Search


Regions


Airport information page

Radio informations:
SALVADOR TWR - 118.3 MHz
Ground (GND) - 121.9 MHz
SALVADOR TRAFFIC - 121.1 MHz
SALVADOR ATIS - 127.75 MHz
SALVADOR CON - 120.8 MHz

Airport informations:
Latitude: 12° 54' 39.58" S
Longitude: 038° 19' 51.76" W
Elevation: 64 feet - 20 meters
Operating hours: 24 hour operations
Operating agency: Military-civil joint use airport
Timezone: UTC-3(-2DT)
Fuel: Jet A1, without icing nhibitor.

100/130 octane gasoline, leaded, MIL-L-5572F (GREEN)

Runway information:
10/28 - 9859 x 148 feet< - >3005 x 45 meters
17/35 - 4985 x 148 feet< - >1519 x 45 meters

Recent METARs:
SBSV 190800Z 10008KT 9999 SCT020 27/23 Q1014
SBSV 190900Z 06004KT 9999 SCT020 27/23 Q1015
SBSV 190900Z 06004KT 9999 SCT020 27/23 Q1015

Airport on the map: